Time;durP1;ratioP1;P1;durP2;ratioP2;P2;SDS_P1;SDS_P2;PMS_P1;PMS_P2;Temp;Humidity;BMP_temperature;BMP_pressure;BME280_temperature;BME280_humidity;BME280_pressure;Samples;Min_cycle;Max_cycle;Signal;HPM_P1;HPM_P2
2022/04/26 03:37:08;;;;;;;32.97;20.13;;;9.00;99.90;;;;;;4905018;28;20063;-77
2022/04/26 03:39:34;;;;;;;31.13;20.15;;;8.90;99.90;;;;;;4892321;28;20080;-78
2022/04/26 03:42:00;;;;;;;26.80;18.83;;;8.90;99.90;;;;;;4904464;29;20020;-78
2022/04/26 03:44:26;;;;;;;29.27;18.77;;;8.80;99.90;;;;;;4877512;28;20025;-78
2022/04/26 03:46:52;;;;;;;27.85;18.55;;;8.90;99.90;;;;;;4902116;29;20050;-77
2022/04/26 03:49:19;;;;;;;33.80;18.85;;;8.80;99.90;;;;;;4889264;29;20525;-78
2022/04/26 03:51:45;;;;;;;29.02;18.88;;;8.80;99.90;;;;;;4883428;29;20029;-78
2022/04/26 03:54:10;;;;;;;27.15;18.73;;;8.80;99.90;;;;;;4887581;28;20044;-78
2022/04/26 03:56:36;;;;;;;27.42;17.75;;;8.70;99.90;;;;;;4893762;28;20536;-78
2022/04/26 03:59:01;;;;;;;28.88;18.63;;;8.70;99.90;;;;;;4904786;28;20112;-77
2022/04/26 04:01:27;;;;;;;24.38;16.83;;;8.70;99.90;;;;;;4877473;28;20391;-77
2022/04/26 04:03:52;;;;;;;30.00;19.90;;;8.80;99.90;;;;;;4893680;29;20452;-78
2022/04/26 04:06:18;;;;;;;30.40;17.17;;;8.80;99.90;;;;;;4886587;29;20036;-77
2022/04/26 04:08:43;;;;;;;27.95;16.98;;;8.70;99.90;;;;;;4891100;28;20063;-78
2022/04/26 04:11:09;;;;;;;29.58;17.70;;;8.60;99.90;;;;;;4898796;29;20123;-77
2022/04/26 04:13:34;;;;;;;25.35;17.20;;;8.70;99.90;;;;;;4903243;28;20484;-77
2022/04/26 04:16:00;;;;;;;26.30;17.20;;;8.70;99.90;;;;;;4889626;28;20025;-78
2022/04/26 04:21:11;;;;;;;22.58;15.82;;;8.60;99.90;;;;;;4908808;28;20185;-77
2022/04/26 04:23:40;;;;;;;24.27;16.23;;;8.60;99.90;;;;;;4888868;29;20032;-77
2022/04/26 04:26:05;;;;;;;24.13;14.82;;;8.60;99.90;;;;;;4906301;28;20028;-78
2022/04/26 04:28:32;;;;;;;26.67;15.15;;;8.60;99.90;;;;;;4907768;28;20047;-77
2022/04/26 04:30:58;;;;;;;20.42;13.65;;;8.60;99.90;;;;;;4890537;28;20401;-77
2022/04/26 04:33:24;;;;;;;20.80;13.73;;;8.50;99.90;;;;;;4903327;29;20036;-78
2022/04/26 04:35:49;;;;;;;20.02;13.90;;;8.50;99.90;;;;;;4903101;29;20023;-78
2022/04/26 04:38:15;;;;;;;22.02;13.73;;;8.50;99.90;;;;;;4904177;29;20047;-77
2022/04/26 04:40:40;;;;;;;23.23;14.10;;;8.50;99.90;;;;;;4907862;28;20044;-78
2022/04/26 04:43:06;;;;;;;21.58;14.48;;;8.40;99.90;;;;;;4901668;28;20488;-77
2022/04/26 04:45:31;;;;;;;21.42;14.20;;;8.40;99.90;;;;;;4907808;28;20485;-77
2022/04/26 04:47:57;;;;;;;20.95;13.32;;;8.40;99.90;;;;;;4876834;28;20127;-78
2022/04/26 04:50:22;;;;;;;20.45;13.90;;;8.30;99.90;;;;;;4905714;29;20028;-78
2022/04/26 04:52:48;;;;;;;21.52;13.40;;;8.40;99.90;;;;;;4902134;29;20028;-77
2022/04/26 04:55:13;;;;;;;21.83;12.68;;;8.30;99.90;;;;;;4890409;28;20385;-77
2022/04/26 04:57:39;;;;;;;18.65;12.18;;;8.30;99.90;;;;;;4909437;28;20063;-77
2022/04/26 05:00:05;;;;;;;17.00;12.52;;;8.30;99.90;;;;;;4903651;29;20590;-78
2022/04/26 05:02:31;;;;;;;19.00;12.65;;;8.40;99.90;;;;;;4907300;28;20036;-77
2022/04/26 05:04:56;;;;;;;17.48;12.13;;;8.30;99.90;;;;;;4885921;28;20035;-78
2022/04/26 05:07:22;;;;;;;17.92;11.55;;;8.30;99.90;;;;;;4876779;29;20106;-78
2022/04/26 05:09:47;;;;;;;18.65;13.18;;;8.40;99.90;;;;;;4903293;28;20036;-77
2022/04/26 05:12:13;;;;;;;21.15;13.20;;;8.30;99.90;;;;;;4885483;29;20408;-77
2022/04/26 05:14:38;;;;;;;19.55;11.90;;;8.30;99.90;;;;;;4922985;28;20092;-78
2022/04/26 05:17:04;;;;;;;18.88;11.90;;;8.30;99.90;;;;;;4899902;28;20032;-78
2022/04/26 05:19:29;;;;;;;19.30;11.45;;;8.30;99.90;;;;;;4888616;29;20036;-77
2022/04/26 05:21:55;;;;;;;20.13;12.95;;;8.30;99.90;;;;;;4890948;29;20051;-77
2022/04/26 05:27:05;;;;;;;17.75;11.57;;;8.30;99.90;;;;;;4903309;28;20128;-78
2022/04/26 05:29:30;;;;;;;18.48;12.65;;;8.40;99.90;;;;;;4891969;28;20454;-77
2022/04/26 05:31:56;;;;;;;17.35;11.73;;;8.40;99.90;;;;;;4891403;29;20044;-77
2022/04/26 05:34:22;;;;;;;15.95;11.02;;;8.40;99.90;;;;;;4891165;29;20025;-77
2022/04/26 05:36:47;;;;;;;20.40;12.40;;;8.50;99.90;;;;;;4873485;28;20044;-77
2022/04/26 05:39:13;;;;;;;22.15;11.10;;;8.40;99.90;;;;;;4903670;28;20139;-77
2022/04/26 05:41:38;;;;;;;17.00;12.13;;;8.40;99.90;;;;;;4889591;29;20067;-77
2022/04/26 05:44:04;;;;;;;16.60;11.88;;;8.40;99.90;;;;;;4888930;28;20032;-78
2022/04/26 05:46:29;;;;;;;21.17;13.02;;;8.50;99.90;;;;;;4907179;28;20036;-77
2022/04/26 05:48:55;;;;;;;15.85;10.40;;;8.50;99.90;;;;;;4903696;29;20028;-77
2022/04/26 05:51:22;;;;;;;17.52;12.05;;;8.50;99.90;;;;;;4886339;29;20512;-77
2022/04/26 05:53:48;;;;;;;17.75;11.85;;;8.50;99.90;;;;;;4886358;28;20087;-77
2022/04/26 05:56:15;;;;;;;19.27;11.10;;;8.50;99.90;;;;;;4884646;28;20040;-77
2022/04/26 05:58:41;;;;;;;16.63;12.45;;;8.50;99.90;;;;;;4905552;28;20408;-77
2022/04/26 06:01:06;;;;;;;16.63;11.68;;;8.60;99.90;;;;;;4902908;29;20028;-77
2022/04/26 06:03:33;;;;;;;18.67;10.63;;;8.60;99.90;;;;;;4897224;28;20040;-77
2022/04/26 06:05:59;;;;;;;19.40;11.90;;;8.70;99.90;;;;;;4890114;29;20029;-78
2022/04/26 06:08:25;;;;;;;21.88;13.13;;;8.80;99.90;;;;;;4876463;29;20043;-77
2022/04/26 06:10:50;;;;;;;23.52;11.52;;;8.80;99.90;;;;;;4886007;29;20025;-77
2022/04/26 06:13:16;;;;;;;15.70;10.60;;;8.80;99.90;;;;;;4886190;28;20047;-77
2022/04/26 06:15:41;;;;;;;17.45;11.77;;;8.80;99.90;;;;;;4908729;28;20032;-77
2022/04/26 06:18:07;;;;;;;22.00;11.73;;;8.90;99.90;;;;;;4905733;28;20136;-77
2022/04/26 06:20:32;;;;;;;14.82;10.90;;;8.90;99.90;;;;;;4905953;28;20055;-77
2022/04/26 06:22:58;;;;;;;16.15;11.60;;;8.90;99.90;;;;;;4903263;29;20237;-77
2022/04/26 06:25:23;;;;;;;18.45;11.32;;;9.00;99.90;;;;;;4891131;29;20036;-77
2022/04/26 06:27:49;;;;;;;19.70;12.27;;;9.00;99.90;;;;;;4889573;28;20055;-77
2022/04/26 06:30:15;;;;;;;23.50;11.65;;;9.00;99.90;;;;;;4890252;28;20040;-77
2022/04/26 06:32:43;;;;;;;22.75;11.77;;;9.00;99.90;;;;;;4886959;29;20404;-77
2022/04/26 06:35:10;;;;;;;20.20;12.50;;;8.90;99.90;;;;;;4890584;28;20512;-77
2022/04/26 06:37:35;;;;;;;19.33;13.30;;;8.90;99.90;;;;;;4886945;29;20517;-79
2022/04/26 06:40:01;;;;;;;22.30;13.88;;;9.00;99.90;;;;;;4875628;28;20044;-77
2022/04/26 06:42:26;;;;;;;21.55;13.70;;;9.00;99.90;;;;;;4890815;29;20039;-77
2022/04/26 06:44:52;;;;;;;19.48;13.30;;;9.00;99.90;;;;;;4898827;29;20052;-76
2022/04/26 06:47:17;;;;;;;24.05;13.02;;;9.10;99.90;;;;;;4900840;28;20036;-77
2022/04/26 06:49:43;;;;;;;15.75;12.45;;;9.10;99.90;;;;;;4901631;29;20028;-77
2022/04/26 06:52:08;;;;;;;20.25;12.57;;;9.20;99.90;;;;;;4906423;28;20520;-77
2022/04/26 06:54:34;;;;;;;24.65;14.57;;;9.30;99.90;;;;;;4905043;28;20052;-77
2022/04/26 06:57:03;;;;;;;23.15;14.73;;;9.50;99.90;;;;;;4902685;29;20115;-77
2022/04/26 06:59:28;;;;;;;23.85;15.45;;;9.60;99.90;;;;;;4892234;29;20059;-77
2022/04/26 07:01:54;;;;;;;26.48;15.75;;;9.80;99.90;;;;;;4907434;28;20036;-77
2022/04/26 07:04:20;;;;;;;25.42;16.63;;;9.90;99.90;;;;;;4889119;28;20040;-77
2022/04/26 07:06:46;;;;;;;24.90;15.52;;;10.00;99.90;;;;;;4875624;29;20040;-77
2022/04/26 07:09:12;;;;;;;26.75;15.43;;;10.10;99.90;;;;;;4877434;29;20136;-77
2022/04/26 07:11:38;;;;;;;27.52;16.20;;;10.20;99.90;;;;;;4889502;28;20180;-77
2022/04/26 07:14:04;;;;;;;27.83;19.20;;;10.30;99.90;;;;;;4914531;28;20074;-77
2022/04/26 07:16:29;;;;;;;25.23;15.90;;;10.50;99.90;;;;;;4893833;29;20056;-77
2022/04/26 07:18:56;;;;;;;38.22;21.02;;;10.60;99.90;;;;;;4904707;29;20456;-77
2022/04/26 07:21:21;;;;;;;31.15;18.30;;;10.60;99.90;;;;;;4889308;28;20404;-77
2022/04/26 07:23:47;;;;;;;29.00;18.52;;;10.70;99.90;;;;;;4891861;28;20025;-77
2022/04/26 07:26:13;;;;;;;41.42;22.13;;;10.80;99.90;;;;;;4877826;28;20551;-77
2022/04/26 07:28:39;;;;;;;33.88;20.25;;;10.90;99.90;;;;;;4876885;28;20084;-77
2022/04/26 07:31:05;;;;;;;33.25;19.33;;;10.90;99.90;;;;;;4888854;28;20021;-77
2022/04/26 07:36:15;;;;;;;32.42;19.83;;;11.10;99.90;;;;;;4906230;28;20170;-77
2022/04/26 07:38:40;;;;;;;36.53;19.55;;;11.10;99.90;;;;;;4902012;29;20138;-77
2022/04/26 07:41:07;;;;;;;42.22;18.83;;;11.20;99.90;;;;;;4892200;28;20108;-77
2022/04/26 07:43:33;;;;;;;35.67;21.10;;;11.30;99.90;;;;;;4898505;29;20437;-77
2022/04/26 07:45:59;;;;;;;44.63;25.98;;;11.40;99.90;;;;;;4891602;29;20091;-77
2022/04/26 07:48:25;;;;;;;39.63;23.17;;;11.40;99.90;;;;;;4886073;29;20028;-77
2022/04/26 07:50:50;;;;;;;43.58;25.40;;;11.60;99.90;;;;;;4890905;28;20040;-77
2022/04/26 07:53:16;;;;;;;43.38;25.20;;;11.70;99.90;;;;;;4875448;28;20510;-77
2022/04/26 07:55:41;;;;;;;40.92;21.73;;;11.80;99.90;;;;;;4906668;28;20097;-77
2022/04/26 07:58:07;;;;;;;34.22;22.05;;;11.90;99.90;;;;;;4889144;29;20488;-77
2022/04/26 08:00:33;;;;;;;27.77;19.92;;;12.00;99.90;;;;;;4910580;28;20358;-77
2022/04/26 08:02:59;;;;;;;33.78;20.00;;;12.10;99.90;;;;;;4885456;29;20044;-77
2022/04/26 08:05:24;;;;;;;40.63;26.13;;;12.30;99.90;;;;;;4909739;28;20381;-77
2022/04/26 08:07:50;;;;;;;46.38;28.50;;;12.40;99.90;;;;;;4903023;29;20032;-77
2022/04/26 08:10:15;;;;;;;48.45;29.55;;;12.50;99.90;;;;;;4890194;29;20535;-77
2022/04/26 08:12:42;;;;;;;41.35;26.67;;;12.60;99.90;;;;;;4889183;28;20033;-77
2022/04/26 08:15:10;;;;;;;34.33;22.15;;;12.60;99.90;;;;;;4886517;29;20032;-77
2022/04/26 08:17:36;;;;;;;30.42;20.73;;;12.80;99.90;;;;;;4906772;28;20127;-77
2022/04/26 08:20:01;;;;;;;30.35;20.23;;;12.80;99.90;;;;;;4892523;29;20115;-77
2022/04/26 08:22:27;;;;;;;30.40;21.23;;;12.80;99.90;;;;;;4869578;29;20516;-77
2022/04/26 08:27:36;;;;;;;26.00;19.13;;;12.80;99.90;;;;;;4907320;28;20043;-77
2022/04/26 08:30:03;;;;;;;32.40;19.65;;;12.90;99.90;;;;;;4886819;29;20044;-77
2022/04/26 08:32:41;;;;;;;28.55;19.42;;;13.00;99.90;;;;;;4883897;29;20032;-77
2022/04/26 08:35:07;;;;;;;28.10;18.10;;;13.10;99.90;;;;;;4872344;29;20032;-77
2022/04/26 08:37:34;;;;;;;24.83;17.77;;;13.30;99.90;;;;;;4908257;29;20036;-77
2022/04/26 08:40:00;;;;;;;26.98;20.48;;;13.40;99.90;;;;;;4916992;28;20032;-78
2022/04/26 08:42:39;;;;;;;26.98;20.10;;;13.60;99.90;;;;;;4901851;29;20488;-77
2022/04/26 08:45:05;;;;;;;23.23;19.65;;;13.80;99.90;;;;;;4875212;29;20037;-77
2022/04/26 08:52:59;;;;;;;26.10;19.67;;;14.20;99.90;;;;;;4905341;28;20531;-77
2022/04/26 08:55:25;;;;;;;25.73;18.77;;;14.40;99.90;;;;;;4900566;28;20028;-78
2022/04/26 08:57:51;;;;;;;30.52;19.00;;;14.50;99.90;;;;;;4905167;29;20050;-77
2022/04/26 09:00:16;;;;;;;24.23;18.80;;;14.80;99.90;;;;;;4875262;29;20488;-77
2022/04/26 09:02:42;;;;;;;26.27;19.75;;;15.00;99.90;;;;;;4904141;28;20035;-77
2022/04/26 09:05:14;;;;;;;27.58;20.08;;;15.10;99.90;;;;;;4890309;29;20031;-77
2022/04/26 09:07:40;;;;;;;24.23;20.08;;;15.10;99.90;;;;;;4886435;29;20059;-77
2022/04/26 09:10:08;;;;;;;29.88;21.17;;;15.10;99.90;;;;;;4904429;29;20500;-77
2022/04/26 09:13:07;;;;;;;33.42;22.70;;;15.20;99.90;;;;;;4906242;29;20501;-77
2022/04/26 09:15:42;;;;;;;30.40;22.48;;;15.30;99.90;;;;;;4889453;29;20056;-77
2022/04/26 09:18:15;;;;;;;27.58;19.33;;;15.40;99.90;;;;;;4889091;28;20047;-77
2022/04/26 09:20:41;;;;;;;28.75;21.33;;;15.60;99.90;;;;;;4904921;28;20128;-77
2022/04/26 09:23:19;;;;;;;30.40;20.13;;;15.70;99.90;;;;;;4890221;29;20127;-77
2022/04/26 09:25:45;;;;;;;24.48;19.40;;;16.10;99.90;;;;;;4905951;28;20364;-78
2022/04/26 09:28:24;;;;;;;30.58;19.58;;;16.30;99.90;;;;;;4902819;29;20143;-77
2022/04/26 09:30:51;;;;;;;24.85;19.27;;;16.40;99.90;;;;;;4907324;29;20059;-77
2022/04/26 09:33:47;;;;;;;26.17;19.92;;;16.60;99.90;;;;;;4890840;29;20141;-78
2022/04/26 09:36:14;;;;;;;21.58;17.35;;;16.90;99.90;;;;;;4896692;28;20039;-78
2022/04/26 09:38:41;;;;;;;21.88;18.45;;;17.10;99.90;;;;;;4886741;28;20036;-78
2022/04/26 09:41:09;;;;;;;27.30;18.05;;;17.10;99.90;;;;;;4875261;29;20134;-78
2022/04/26 09:43:35;;;;;;;23.92;18.40;;;17.20;99.90;;;;;;4891127;29;20118;-77
2022/04/26 09:46:01;;;;;;;20.70;16.92;;;17.30;99.90;;;;;;4875963;28;20625;-78
2022/04/26 09:48:27;;;;;;;22.30;16.17;;;17.40;99.90;;;;;;4890236;29;20044;-77
2022/04/26 09:50:52;;;;;;;23.73;17.17;;;17.70;99.90;;;;;;4900656;28;20083;-77
2022/04/26 09:53:18;;;;;;;23.40;16.85;;;17.80;99.90;;;;;;4881738;29;20044;-78
2022/04/26 09:55:44;;;;;;;25.73;16.67;;;18.00;99.90;;;;;;4898152;29;20120;-77
2022/04/26 09:58:10;;;;;;;19.83;14.27;;;18.00;99.90;;;;;;4874266;29;20036;-77
2022/04/26 10:00:36;;;;;;;20.15;14.30;;;18.10;99.90;;;;;;4903747;29;20055;-77
2022/04/26 10:03:02;;;;;;;19.13;14.02;;;18.10;99.90;;;;;;4884913;28;20118;-77
2022/04/26 10:05:28;;;;;;;18.55;13.55;;;18.00;99.90;;;;;;4874840;28;20102;-78
2022/04/26 10:07:53;;;;;;;16.65;14.85;;;18.10;99.90;;;;;;4898161;29;20036;-77
2022/04/26 10:10:20;;;;;;;22.80;15.90;;;18.30;99.90;;;;;;4873066;29;20048;-77
2022/04/26 10:13:31;;;;;;;21.17;14.52;;;18.30;99.90;;;;;;4887704;28;20106;-77
2022/04/26 10:15:31;;;;;;;19.27;13.97;;;18.50;99.90;;;;;;4904387;29;20059;-77
2022/04/26 10:17:56;;;;;;;18.35;14.48;;;18.60;99.90;;;;;;4885998;29;20032;-77
2022/04/26 10:20:40;;;;;;;19.40;14.68;;;18.70;99.90;;;;;;4872569;29;20064;-77
2022/04/26 10:23:06;;;;;;;19.77;14.05;;;18.80;99.90;;;;;;4888053;29;20492;-77
2022/04/26 10:25:31;;;;;;;19.13;13.50;;;18.90;99.90;;;;;;4888253;28;20096;-77
2022/04/26 10:28:23;;;;;;;17.25;13.88;;;19.00;99.90;;;;;;4905475;28;20126;-77
2022/04/26 10:30:50;;;;;;;16.73;13.13;;;19.00;99.90;;;;;;4907914;28;20035;-77
2022/04/26 10:33:35;;;;;;;15.90;11.45;;;19.00;99.90;;;;;;4889285;29;20044;-77
2022/04/26 10:36:29;;;;;;;14.55;12.93;;;19.00;99.90;;;;;;4923166;28;20071;-77
2022/04/26 10:39:09;;;;;;;22.75;15.20;;;19.10;99.90;;;;;;4908279;28;20116;-77
2022/04/26 10:41:42;;;;;;;16.85;14.13;;;19.20;99.90;;;;;;4908789;29;20519;-77
2022/04/26 10:44:22;;;;;;;16.95;14.10;;;19.20;99.90;;;;;;4910128;29;20500;-77
2022/04/26 10:46:52;;;;;;;18.98;14.75;;;19.10;99.90;;;;;;4903205;28;20036;-77
2022/04/26 10:49:26;;;;;;;17.27;14.57;;;19.10;99.90;;;;;;4899842;28;20096;-78
2022/04/26 10:51:55;;;;;;;19.00;14.25;;;19.20;99.90;;;;;;4905795;28;20044;-77
2022/04/26 10:54:46;;;;;;;20.50;14.00;;;19.20;99.90;;;;;;4891310;28;20032;-77
2022/04/26 10:57:15;;;;;;;20.10;15.18;;;19.30;99.90;;;;;;4910865;28;20436;-77
2022/04/26 10:59:48;;;;;;;18.27;12.73;;;19.50;99.90;;;;;;4907555;29;20481;-77
2022/04/26 11:02:17;;;;;;;22.92;13.85;;;19.70;99.90;;;;;;4870856;29;20044;-77
2022/04/26 11:04:43;;;;;;;15.93;13.45;;;20.00;99.90;;;;;;4911430;28;20046;-77
2022/04/26 11:07:18;;;;;;;18.00;13.85;;;20.30;99.90;;;;;;4877521;29;20048;-78
2022/04/26 11:09:49;;;;;;;22.17;14.27;;;20.50;99.90;;;;;;4889581;28;20040;-77
2022/04/26 11:12:17;;;;;;;15.60;13.20;;;20.80;99.90;;;;;;4887293;28;20461;-78
2022/04/26 11:14:43;;;;;;;17.25;14.50;;;21.20;99.90;;;;;;4888532;28;20055;-78
2022/04/26 11:17:09;;;;;;;16.15;13.25;;;21.40;99.90;;;;;;4878204;29;20099;-78
2022/04/26 11:19:36;;;;;;;15.90;12.05;;;21.50;99.90;;;;;;4890458;28;20048;-78
2022/04/26 11:22:05;;;;;;;15.07;10.93;;;21.60;99.90;;;;;;4887367;28;20047;-79
2022/04/26 11:29:59;;;;;;;18.58;14.55;;;21.90;99.90;;;;;;4906915;28;20058;-79
2022/04/26 11:32:31;;;;;;;16.95;15.07;;;22.10;99.90;;;;;;4876072;28;20669;-79
2022/04/26 11:34:57;;;;;;;16.77;15.05;;;21.90;99.90;;;;;;4877189;29;20461;-79
2022/04/26 11:37:23;;;;;;;19.77;15.90;;;21.80;99.90;;;;;;4891089;28;20032;-79
2022/04/26 11:39:48;;;;;;;23.85;16.88;;;21.70;99.80;;;;;;4902100;28;20404;-79
2022/04/26 11:42:14;;;;;;;20.92;17.02;;;21.40;99.90;;;;;;4892598;29;20036;-79
2022/04/26 11:44:58;;;;;;;22.27;17.77;;;21.10;98.40;;;;;;4889767;29;20032;-79
2022/04/26 11:47:40;;;;;;;29.08;18.77;;;20.90;99.90;;;;;;4891643;29;20523;-78
2022/04/26 11:50:18;;;;;;;22.27;16.40;;;20.40;99.90;;;;;;4890837;28;20452;-80
2022/04/26 11:52:44;;;;;;;20.45;17.13;;;19.80;99.90;;;;;;4905772;29;20047;-79
2022/04/26 11:55:21;;;;;;;21.80;17.45;;;19.30;99.90;;;;;;4886135;29;20080;-79
2022/04/26 11:57:47;;;;;;;20.33;16.70;;;18.90;99.90;;;;;;4876309;29;20107;-79
2022/04/26 12:00:16;;;;;;;22.83;18.63;;;18.70;99.90;;;;;;4884793;29;20075;-79
2022/04/26 12:02:42;;;;;;;21.55;19.38;;;18.50;99.90;;;;;;4903464;29;20115;-79
2022/04/26 12:05:08;;;;;;;22.48;20.13;;;18.40;99.90;;;;;;4877668;28;20373;-80
2022/04/26 12:07:34;;;;;;;24.15;19.65;;;18.30;99.90;;;;;;4892205;28;20036;-79
2022/04/26 12:10:00;;;;;;;22.58;18.80;;;18.20;99.90;;;;;;4891535;29;20063;-79
2022/04/26 12:12:25;;;;;;;20.98;18.75;;;18.20;99.90;;;;;;4904536;28;20111;-79
2022/04/26 12:14:51;;;;;;;24.25;20.10;;;18.20;99.90;;;;;;4899218;28;20127;-79
2022/04/26 12:17:18;;;;;;;20.80;18.63;;;18.10;99.90;;;;;;4877375;29;20107;-79
2022/04/26 12:19:50;;;;;;;20.63;18.50;;;18.00;99.90;;;;;;4875841;29;20032;-79
2022/04/26 12:22:15;;;;;;;24.40;17.65;;;18.00;99.90;;;;;;4900428;28;20047;-79
2022/04/26 12:24:48;;;;;;;24.80;19.13;;;18.00;99.90;;;;;;4884865;29;20035;-79
2022/04/26 12:27:15;;;;;;;24.17;18.20;;;18.00;99.90;;;;;;4883978;29;20124;-79
2022/04/26 12:29:43;;;;;;;23.15;19.48;;;18.10;99.90;;;;;;4876802;29;20413;-79
2022/04/26 12:32:16;;;;;;;27.08;19.05;;;18.10;99.90;;;;;;4874513;28;20211;-79
2022/04/26 12:34:57;;;;;;;19.95;17.88;;;18.20;99.90;;;;;;4905397;28;20070;-79
2022/04/26 12:37:27;;;;;;;24.48;19.80;;;18.20;99.90;;;;;;4876822;29;20135;-79
2022/04/26 12:40:05;;;;;;;24.85;21.00;;;18.20;99.90;;;;;;4874890;29;20044;-79
2022/04/26 12:42:36;;;;;;;30.02;23.10;;;17.90;99.90;;;;;;4874585;29;20119;-79
2022/04/26 12:45:24;;;;;;;25.52;22.70;;;17.70;99.90;;;;;;4907014;28;20071;-79
2022/04/26 12:50:52;;;;;;;28.85;21.95;;;17.20;99.90;;;;;;4907965;28;20166;-79
2022/04/26 12:53:34;;;;;;;25.00;19.50;;;16.90;99.90;;;;;;4887873;29;20050;-79
2022/04/26 12:56:09;;;;;;;24.40;19.10;;;16.80;99.90;;;;;;4890327;29;20151;-79
2022/04/26 12:58:38;;;;;;;22.33;19.30;;;16.80;99.90;;;;;;4901138;28;20040;-79
2022/04/26 13:01:05;;;;;;;20.27;18.23;;;16.80;99.90;;;;;;4915503;28;20092;-79
2022/04/26 13:03:30;;;;;;;19.55;17.52;;;16.80;99.90;;;;;;4887489;28;20119;-79
2022/04/26 13:06:15;;;;;;;24.02;17.95;;;16.90;99.90;;;;;;4885801;29;20024;-79
2022/04/26 13:08:42;;;;;;;22.88;19.45;;;17.20;99.90;;;;;;4899076;29;20043;-79
2022/04/26 13:11:09;;;;;;;19.33;17.10;;;17.20;99.90;;;;;;4871186;28;20054;-79
2022/04/26 13:13:36;;;;;;;21.10;18.90;;;17.60;99.90;;;;;;4906684;29;20404;-79
2022/04/26 13:16:01;;;;;;;20.52;17.30;;;18.00;99.90;;;;;;4901736;29;20024;-79
2022/04/26 13:18:28;;;;;;;20.63;17.15;;;18.30;99.90;;;;;;4888074;29;20028;-80
2022/04/26 13:20:55;;;;;;;20.17;17.73;;;18.60;99.90;;;;;;4900847;29;20188;-79
2022/04/26 13:23:20;;;;;;;18.08;15.65;;;19.00;99.90;;;;;;4899530;29;20029;-79
2022/04/26 13:25:46;;;;;;;22.38;16.85;;;19.10;99.90;;;;;;4890433;29;20035;-79
2022/04/26 13:28:11;;;;;;;20.27;16.20;;;19.30;99.90;;;;;;4886321;29;20181;-79
2022/04/26 13:30:37;;;;;;;18.50;15.60;;;19.40;99.90;;;;;;4905523;29;20043;-79
2022/04/26 13:33:03;;;;;;;16.75;14.70;;;19.40;99.90;;;;;;4888972;28;20437;-80
2022/04/26 13:35:29;;;;;;;18.35;15.85;;;19.20;99.90;;;;;;4918665;28;20037;-79
2022/04/26 13:37:55;;;;;;;18.08;14.88;;;18.90;99.90;;;;;;4872108;28;20040;-79
2022/04/26 13:40:21;;;;;;;18.73;16.23;;;18.60;99.90;;;;;;4918948;28;20548;-79
2022/04/26 13:42:47;;;;;;;20.73;15.38;;;18.50;99.90;;;;;;4889505;29;20084;-79
2022/04/26 13:45:13;;;;;;;19.23;14.80;;;18.50;99.90;;;;;;4890918;28;20043;-79
2022/04/26 13:47:40;;;;;;;16.80;15.07;;;18.40;99.90;;;;;;4889273;28;20044;-79
2022/04/26 13:50:06;;;;;;;17.17;13.88;;;18.30;99.90;;;;;;4873292;29;20044;-79
2022/04/26 13:52:32;;;;;;;20.13;14.13;;;18.30;99.90;;;;;;4907260;28;20400;-80
2022/04/26 13:54:57;;;;;;;17.85;13.68;;;18.30;99.90;;;;;;4891559;28;20040;-79
2022/04/26 13:57:23;;;;;;;16.98;15.18;;;18.10;99.90;;;;;;4892075;28;20144;-79
2022/04/26 13:59:48;;;;;;;18.70;13.98;;;17.90;99.90;;;;;;4884778;29;20047;-79
2022/04/26 14:02:14;;;;;;;24.60;20.83;;;17.80;99.90;;;;;;4875986;29;20044;-79
2022/04/26 14:04:39;;;;;;;27.40;22.25;;;17.50;99.90;;;;;;4888838;29;20426;-79
2022/04/26 14:07:05;;;;;;;28.70;21.13;;;17.10;99.90;;;;;;4875249;28;20128;-79
2022/04/26 14:09:30;;;;;;;26.92;22.67;;;16.80;99.90;;;;;;4906632;28;20036;-79
2022/04/26 14:11:56;;;;;;;25.92;21.55;;;16.50;99.90;;;;;;4903061;28;20062;-79
2022/04/26 14:22:35;;;;;;;23.10;20.65;;;15.60;99.90;;;;;;4897669;28;20083;-78
2022/04/26 14:25:08;;;;;;;25.48;20.40;;;15.50;99.90;;;;;;4889942;29;20115;-78
2022/04/26 14:27:34;;;;;;;28.08;21.48;;;15.30;99.90;;;;;;4890009;28;20044;-78
2022/04/26 14:30:00;;;;;;;24.70;20.50;;;15.20;99.90;;;;;;4884671;29;20437;-78
2022/04/26 14:32:26;;;;;;;24.35;21.75;;;15.20;99.90;;;;;;4898749;29;20044;-78
2022/04/26 14:34:51;;;;;;;25.30;21.85;;;15.10;99.90;;;;;;4895347;29;20489;-78
2022/04/26 14:37:17;;;;;;;26.08;22.27;;;15.10;99.90;;;;;;4884272;28;20038;-79
2022/04/26 14:39:42;;;;;;;28.40;23.02;;;15.00;99.90;;;;;;4909523;28;20115;-78
2022/04/26 14:42:08;;;;;;;28.67;21.77;;;15.00;99.90;;;;;;4874363;28;20036;-78
2022/04/26 14:44:34;;;;;;;25.10;22.45;;;14.90;99.90;;;;;;4890706;28;20035;-78
2022/04/26 14:47:02;;;;;;;24.95;20.30;;;14.90;99.90;;;;;;4873136;28;20044;-78
2022/04/26 14:49:30;;;;;;;19.10;17.13;;;14.90;99.90;;;;;;4875769;28;20047;-78
2022/04/26 14:51:56;;;;;;;22.13;18.75;;;14.80;99.90;;;;;;4887528;28;20092;-78
2022/04/26 14:54:22;;;;;;;20.63;18.42;;;14.80;99.90;;;;;;4905751;29;20040;-78
2022/04/26 14:56:48;;;;;;;20.95;18.50;;;14.90;99.90;;;;;;4881864;28;20032;-78
2022/04/26 14:59:15;;;;;;;20.45;17.52;;;14.90;99.90;;;;;;4906151;29;20047;-78
2022/04/26 15:01:45;;;;;;;19.30;17.10;;;14.90;99.90;;;;;;4902271;28;20088;-78
2022/04/26 15:04:10;;;;;;;20.02;17.77;;;15.00;99.90;;;;;;4876451;28;20361;-78
2022/04/26 15:06:36;;;;;;;21.75;18.25;;;15.00;99.90;;;;;;4905361;28;20051;-78
2022/04/26 15:11:46;;;;;;;21.90;18.33;;;15.20;99.90;;;;;;4903228;28;20710;-78
2022/04/26 15:16:56;;;;;;;20.70;17.35;;;15.30;99.90;;;;;;4909178;28;20043;-78
2022/04/26 15:19:22;;;;;;;25.90;20.55;;;15.40;99.90;;;;;;4890085;29;20029;-78
2022/04/26 15:21:47;;;;;;;23.45;19.40;;;15.40;99.90;;;;;;4904935;28;20373;-78
2022/04/26 15:24:13;;;;;;;25.40;19.88;;;15.50;99.90;;;;;;4912761;28;20036;-79
2022/04/26 15:26:39;;;;;;;18.42;16.42;;;15.50;99.90;;;;;;4906621;28;20036;-78
2022/04/26 15:29:05;;;;;;;20.17;17.67;;;15.60;99.90;;;;;;4878508;28;20433;-79
2022/04/26 15:31:31;;;;;;;21.20;18.88;;;15.70;99.90;;;;;;4893288;28;20362;-78
2022/04/26 15:33:57;;;;;;;17.27;15.45;;;15.80;99.90;;;;;;4906019;28;20123;-78
2022/04/26 15:36:23;;;;;;;14.60;13.05;;;15.90;99.90;;;;;;4905864;29;20473;-78
2022/04/26 15:38:49;;;;;;;18.90;16.90;;;16.00;99.90;;;;;;4876048;29;20120;-78
2022/04/26 15:41:16;;;;;;;21.38;14.82;;;16.00;99.90;;;;;;4888335;28;20126;-77
2022/04/26 15:43:41;;;;;;;18.80;16.95;;;16.10;99.90;;;;;;4876160;29;20039;-78
2022/04/26 15:46:08;;;;;;;13.13;11.73;;;16.10;99.90;;;;;;4903021;28;20029;-78
2022/04/26 15:48:38;;;;;;;19.58;16.65;;;16.20;99.90;;;;;;4909445;28;20032;-78
2022/04/26 15:51:04;;;;;;;21.15;17.33;;;16.20;99.90;;;;;;4889624;28;20040;-78
2022/04/26 15:53:30;;;;;;;18.48;15.90;;;16.10;99.90;;;;;;4903865;28;20091;-78
2022/04/26 15:55:55;;;;;;;22.27;17.42;;;16.10;99.90;;;;;;4878268;29;20448;-78
2022/04/26 15:58:21;;;;;;;19.08;14.73;;;16.00;99.90;;;;;;4921856;28;20036;-78
2022/04/26 16:00:46;;;;;;;16.80;15.05;;;15.80;99.90;;;;;;4905254;28;20040;-78
2022/04/26 16:03:12;;;;;;;19.95;14.48;;;15.70;99.90;;;;;;4877842;29;20065;-78
2022/04/26 16:05:40;;;;;;;15.45;12.73;;;15.60;99.90;;;;;;4905730;28;20253;-78
2022/04/26 16:08:06;;;;;;;13.35;11.20;;;15.40;99.90;;;;;;4893222;29;20133;-79
2022/04/26 16:21:30;;;;;;;11.32;9.88;;;14.50;99.90;;;;;;4894588;29;20108;-78
2022/04/26 16:23:56;;;;;;;11.13;9.25;;;14.40;99.90;;;;;;4902183;29;20489;-77
2022/04/26 16:26:22;;;;;;;10.43;9.32;;;14.20;99.90;;;;;;4888368;29;20108;-78
2022/04/26 16:28:48;;;;;;;9.60;8.70;;;14.10;99.90;;;;;;4903196;29;20207;-78
2022/04/26 16:31:14;;;;;;;10.93;9.35;;;13.90;99.90;;;;;;4897773;29;20082;-78
2022/04/26 16:33:39;;;;;;;13.57;10.23;;;13.90;99.90;;;;;;4895489;29;20084;-78
2022/04/26 16:36:07;;;;;;;10.50;8.65;;;13.80;99.90;;;;;;4908062;28;20115;-78
2022/04/26 16:38:33;;;;;;;9.18;8.27;;;13.80;99.90;;;;;;4889659;28;20082;-78
2022/04/26 16:41:01;;;;;;;8.60;7.75;;;13.80;99.90;;;;;;4888763;29;20029;-78
2022/04/26 16:43:26;;;;;;;10.77;9.40;;;13.60;99.90;;;;;;4888780;29;20401;-78
2022/04/26 16:45:52;;;;;;;8.60;7.75;;;13.60;99.90;;;;;;4906426;28;20024;-78
2022/04/26 16:48:18;;;;;;;9.20;7.60;;;13.50;99.90;;;;;;4902639;29;20441;-78
2022/04/26 16:50:43;;;;;;;9.25;8.20;;;13.60;99.90;;;;;;4887567;28;20429;-78
2022/04/26 16:53:09;;;;;;;8.57;7.78;;;13.50;99.90;;;;;;4876593;28;20039;-78
2022/04/26 16:55:34;;;;;;;7.72;7.03;;;13.50;99.90;;;;;;4908038;28;20500;-77
2022/04/26 16:58:01;;;;;;;8.63;7.82;;;13.40;99.90;;;;;;4876358;29;20044;-78